»·PEaware :: QXE2406 KPDX-KBIL

QXE2406 :: KPDX-KBIL

FLIGHT INFORMATION

Flight Status: Arrived
Operator:
Horizon Air
More flights by this operator :: More flights under this callsign
Pilot: Aundrey S. (17120)
Aircraft: DEHAVILLAND DASH 8 400
(DH8D)
More flights by this aircraft type
Origin: KPDX Portland Intl
United States
Destination: KBIL Billings Logan Intl
United States
More flights between these airports :: More routes between these airports
Route: +BTG BYRCH CRAZI1
File this flight plan on PilotEdge
Remarks:
Altitude:
(Current/Filed)
25,000ft
Speed:
(Current/Filed)
350kts
Departed: 03-Jan-18 08:41 PM
Arrived: 03-Jan-18 10:40 PM
Distance/Time
Traveled:
1908nm/1:59
Distance/Time
To Go:
Arrived

Flight Plot

Page will automatically refresh every two minutes.

Flight plan parsing failed; only flown route is shown


Map Options




Map Legend


Flown Route
Filed Route
Departure Airport
Arrival Airport
Navaid (VOR, NDB)
Fix

Horizontal Profiles

Position Reports

Time Latitude Longitude Heading Altitude Ground
Speed
03-Jan-18 20:06 45.587984 -122.594801 28 37ft 0kts
03-Jan-18 20:07 45.587984 -122.594801 28 37ft 0kts
03-Jan-18 20:08 45.587984 -122.594801 28 37ft 0kts
03-Jan-18 20:09 45.587984 -122.594801 28 37ft 0kts
03-Jan-18 20:10 45.587984 -122.594801 28 37ft 0kts
03-Jan-18 20:11 45.587984 -122.594801 28 37ft 0kts
03-Jan-18 20:12 45.587984 -122.594801 28 37ft 0kts
03-Jan-18 20:13 45.587984 -122.594801 28 37ft 0kts
03-Jan-18 20:14 45.587984 -122.594801 28 37ft 0kts
03-Jan-18 20:15 45.587984 -122.594801 28 37ft 0kts
03-Jan-18 20:16 45.587984 -122.594801 28 37ft 0kts
03-Jan-18 20:17 45.587984 -122.594801 28 37ft 0kts
03-Jan-18 20:18 45.587984 -122.594801 28 37ft 0kts
03-Jan-18 20:19 45.587984 -122.594801 28 37ft 0kts
03-Jan-18 20:20 45.587984 -122.594801 28 37ft 0kts
03-Jan-18 20:21 45.587984 -122.594801 28 37ft 0kts
03-Jan-18 20:22 45.587984 -122.594801 28 37ft 0kts
03-Jan-18 20:23 45.587984 -122.594801 28 37ft 0kts
03-Jan-18 20:24 45.587984 -122.594801 28 37ft 0kts
03-Jan-18 20:25 45.587984 -122.594801 28 37ft 0kts
03-Jan-18 20:26 45.587984 -122.594801 28 37ft 0kts
03-Jan-18 20:27 45.587984 -122.594801 28 37ft 0kts
03-Jan-18 20:28 45.587984 -122.594801 28 37ft 0kts
03-Jan-18 20:29 45.587852 -122.594908 30 37ft 2kts
03-Jan-18 20:30 45.587287 -122.595318 0 37ft 2kts
03-Jan-18 20:31 45.587070 -122.595109 309 37ft 0kts
03-Jan-18 20:32 45.587070 -122.595109 309 37ft 0kts
03-Jan-18 20:33 45.587070 -122.595109 309 37ft 0kts
03-Jan-18 20:34 45.587070 -122.595109 309 37ft 0kts
03-Jan-18 20:35 45.587070 -122.595109 309 37ft 0kts
03-Jan-18 20:36 45.587070 -122.595109 309 37ft 0kts
03-Jan-18 20:37 45.587070 -122.595109 309 37ft 0kts
03-Jan-18 20:38 45.587070 -122.595109 309 37ft 0kts
03-Jan-18 20:39 45.587070 -122.595109 309 37ft 0kts
03-Jan-18 20:40 45.587231 -122.595391 305 37ft 5kts
03-Jan-18 20:41 45.588058 -122.597636 296 37ft 5kts
03-Jan-18 20:42 45.589813 -122.602397 297 37ft 14kts
03-Jan-18 20:43 45.592996 -122.599772 46 37ft 19kts
03-Jan-18 20:44 45.594657 -122.597265 46 37ft 0kts
03-Jan-18 20:45 45.594657 -122.597265 46 37ft 0kts
03-Jan-18 20:46 45.594657 -122.597265 46 37ft 0kts
03-Jan-18 20:47 45.593644 -122.592586 118 37ft 76kts
03-Jan-18 20:48 45.579436 -122.544966 118 1760ft 151kts
03-Jan-18 20:49 45.555306 -122.488976 119 4050ft 177kts
03-Jan-18 20:50 45.573871 -122.425951 46 6200ft 217kts
03-Jan-18 20:51 45.619445 -122.363015 46 8175ft 244kts
03-Jan-18 20:52 45.662979 -122.289364 75 10071ft 252kts
03-Jan-18 20:53 45.670993 -122.190031 84 11710ft 262kts
03-Jan-18 20:54 45.678305 -122.086962 84 13253ft 269kts
03-Jan-18 20:55 45.685570 -121.981525 84 14623ft 274kts
03-Jan-18 20:56 45.692856 -121.874630 84 15959ft 275kts
03-Jan-18 20:57 45.700188 -121.766143 84 17067ft 282kts
03-Jan-18 20:58 45.707557 -121.655622 84 18047ft 287kts
03-Jan-18 20:59 45.715014 -121.542846 84 19034ft 288kts
03-Jan-18 21:00 45.722260 -121.431011 84 20011ft 287kts
03-Jan-18 21:01 45.729324 -121.320229 84 20985ft 284kts
03-Jan-18 21:02 45.736430 -121.206839 84 21507ft 296kts
03-Jan-18 21:03 45.743699 -121.090109 84 22001ft 303kts
03-Jan-18 21:04 45.750976 -120.971330 84 22493ft 306kts
03-Jan-18 21:05 45.758158 -120.851330 84 22970ft 308kts
03-Jan-18 21:06 45.765195 -120.730914 84 23363ft 311kts
03-Jan-18 21:07 45.772195 -120.610332 84 23753ft 312kts
03-Jan-18 21:08 45.779042 -120.488920 84 24146ft 311kts
03-Jan-18 21:09 45.785762 -120.368265 84 24537ft 310kts
03-Jan-18 21:10 45.792384 -120.247094 84 24837ft 312kts
03-Jan-18 21:11 45.798924 -120.124967 85 25131ft 313kts
03-Jan-18 21:12 45.805384 -120.002011 85 25371ft 316kts
03-Jan-18 21:13 45.811834 -119.876535 85 25389ft 325kts
03-Jan-18 21:14 45.818289 -119.748277 85 25388ft 333kts
03-Jan-18 21:15 45.824666 -119.617898 85 25387ft 338kts
03-Jan-18 21:16 45.831057 -119.484868 85 25388ft 342kts
03-Jan-18 21:17 45.837258 -119.351158 85 25394ft 344kts
03-Jan-18 21:18 45.843358 -119.216607 85 25394ft 346kts
03-Jan-18 21:19 45.849318 -119.081080 85 25389ft 348kts
03-Jan-18 21:20 45.855101 -118.945911 85 25373ft 350kts
03-Jan-18 21:21 45.860794 -118.809330 85 25358ft 351kts
03-Jan-18 21:22 45.866378 -118.671873 85 25333ft 352kts
03-Jan-18 21:23 45.871752 -118.535024 85 25328ft 353kts
03-Jan-18 21:24 45.877006 -118.397755 85 25326ft 353kts
03-Jan-18 21:25 45.882130 -118.259763 85 25323ft 353kts
03-Jan-18 21:26 45.887066 -118.122618 85 25320ft 352kts
03-Jan-18 21:27 45.891855 -117.985237 85 25318ft 352kts
03-Jan-18 21:28 45.896444 -117.848947 85 25330ft 352kts
03-Jan-18 21:29 45.900871 -117.712230 85 25335ft 352kts
03-Jan-18 21:30 45.905143 -117.574472 85 25333ft 353kts
03-Jan-18 21:31 45.909239 -117.436977 85 25331ft 353kts
03-Jan-18 21:32 45.913114 -117.299712 85 25331ft 354kts
03-Jan-18 21:33 45.916878 -117.161197 85 25333ft 355kts
03-Jan-18 21:34 45.920479 -117.023104 85 25324ft 357kts
03-Jan-18 21:35 45.923921 -116.884047 85 25309ft 358kts
03-Jan-18 21:36 45.927217 -116.743734 85 25301ft 359kts
03-Jan-18 21:37 45.930355 -116.603310 85 25292ft 360kts
03-Jan-18 21:38 45.933334 -116.463600 85 25281ft 361kts
03-Jan-18 21:39 45.936139 -116.322548 85 25272ft 361kts
03-Jan-18 21:40 45.938783 -116.181414 85 25267ft 361kts
03-Jan-18 21:41 45.941412 -116.039527 85 25267ft 361kts
03-Jan-18 21:42 45.943822 -115.898091 85 25278ft 361kts
03-Jan-18 21:43 45.945954 -115.757992 85 25308ft 360kts
03-Jan-18 21:44 45.948017 -115.617618 85 25337ft 360kts
03-Jan-18 21:45 45.949828 -115.477667 85 25369ft 360kts
03-Jan-18 21:46 45.951445 -115.337887 85 25371ft 361kts
03-Jan-18 21:47 45.952930 -115.196907 85 25369ft 362kts
03-Jan-18 21:48 45.954208 -115.056452 85 25367ft 363kts
03-Jan-18 21:49 45.955297 -114.915207 85 25365ft 363kts
03-Jan-18 21:50 45.956201 -114.773511 85 25364ft 363kts
03-Jan-18 21:51 45.956924 -114.632692 85 25364ft 363kts
03-Jan-18 21:52 45.957550 -114.491361 85 25372ft 363kts
03-Jan-18 21:53 45.958024 -114.349590 85 25372ft 363kts
03-Jan-18 21:54 45.958250 -114.207764 85 25372ft 363kts
03-Jan-18 21:55 45.958393 -114.065514 85 25366ft 363kts
03-Jan-18 21:56 45.958392 -113.923327 85 25348ft 363kts
03-Jan-18 21:57 45.958205 -113.782213 85 25335ft 363kts
03-Jan-18 21:58 45.957889 -113.640816 85 25327ft 363kts
03-Jan-18 21:59 45.957382 -113.498503 85 25320ft 363kts
03-Jan-18 22:00 45.956703 -113.356853 85 25312ft 364kts
03-Jan-18 22:01 45.955840 -113.214730 85 25304ft 364kts
03-Jan-18 22:02 45.951417 -113.072426 90 25296ft 366kts
03-Jan-18 22:03 45.942869 -112.929597 90 25288ft 366kts
03-Jan-18 22:04 45.937242 -112.787423 85 25282ft 364kts
03-Jan-18 22:05 45.936823 -112.645662 85 25278ft 363kts
03-Jan-18 22:06 45.936261 -112.503940 85 25276ft 363kts
03-Jan-18 22:07 45.935518 -112.361580 85 25276ft 362kts
03-Jan-18 22:08 45.934699 -112.220608 86 25278ft 361kts
03-Jan-18 22:09 45.933627 -112.079866 86 25283ft 360kts
03-Jan-18 22:10 45.932400 -111.938732 86 25286ft 360kts
03-Jan-18 22:11 45.931014 -111.798137 86 25282ft 360kts
03-Jan-18 22:12 45.929451 -111.657976 86 25307ft 359kts
03-Jan-18 22:13 45.927693 -111.516992 86 25311ft 360kts
03-Jan-18 22:14 45.925821 -111.376406 86 25312ft 360kts
03-Jan-18 22:15 45.923785 -111.235642 86 25312ft 360kts
03-Jan-18 22:16 45.921529 -111.095288 86 25309ft 359kts
03-Jan-18 22:17 45.925966 -110.956253 78 25305ft 355kts
03-Jan-18 22:18 45.935489 -110.817885 80 25296ft 355kts
03-Jan-18 22:19 45.943775 -110.679320 79 25284ft 355kts
03-Jan-18 22:20 45.952148 -110.540549 79 25274ft 355kts
03-Jan-18 22:21 45.960369 -110.401689 80 25267ft 355kts
03-Jan-18 22:22 45.968315 -110.263711 80 24809ft 353kts
03-Jan-18 22:23 45.976456 -110.124533 81 22562ft 357kts
03-Jan-18 22:24 45.983804 -109.989546 81 20306ft 335kts
03-Jan-18 22:25 45.990666 -109.863087 82 18060ft 312kts
03-Jan-18 22:26 45.997038 -109.738590 82 17053ft 318kts
03-Jan-18 22:27 46.002839 -109.614397 82 17002ft 317kts
03-Jan-18 22:28 46.008708 -109.490468 82 17002ft 324kts
03-Jan-18 22:29 46.014782 -109.361045 82 16999ft 340kts
03-Jan-18 22:30 46.020846 -109.226860 82 16997ft 348kts
03-Jan-18 22:31 46.016857 -109.089281 102 16122ft 359kts
03-Jan-18 22:32 45.993033 -108.960436 102 14453ft 340kts
03-Jan-18 22:33 45.971187 -108.839531 103 12582ft 301kts
03-Jan-18 22:34 45.951582 -108.729659 103 10479ft 284kts
03-Jan-18 22:35 45.936438 -108.641927 103 9538ft 253kts
03-Jan-18 22:36 45.916378 -108.539325 110 9463ft 222kts
03-Jan-18 22:37 45.891067 -108.448642 111 7364ft 258kts
03-Jan-18 22:38 45.858036 -108.372229 133 6440ft 203kts
03-Jan-18 22:39 45.828643 -108.302770 118 6447ft 221kts
03-Jan-18 22:40 45.794579 -108.221738 139 5902ft 252kts
03-Jan-18 22:41 45.735073 -108.226198 225 5945ft 226kts
03-Jan-18 22:42 45.734513 -108.288834 296 5948ft 194kts
03-Jan-18 22:43 45.756080 -108.352332 291 5963ft 169kts
03-Jan-18 22:44 45.775014 -108.417494 290 5095ft 190kts
03-Jan-18 22:45 45.790316 -108.471273 281 4478ft 146kts
03-Jan-18 22:46 45.803924 -108.522688 281 3660ft 0kts
03-Jan-18 22:47 30.499341 -86.511286 191 92ft 0kts

Navigation Log

Ident Type
Flight plan parsing failed, navigation log unavailable